TimeCST,TemperatureF,Dew PointF,Humidity,Sea Level PressureIn,VisibilityMPH,Wind Direction,Wind SpeedMPH,Gust SpeedMPH,PrecipitationIn,Events,Conditions,WindDirDegrees,DateUTC
12:52 AM,30.9,23.0,72,30.18,10.0,NW,17.3,-,N/A,,Overcast,320,2012-03-08 06:52:00
1:16 AM,30.2,21.2,69,30.15,10.0,NNW,17.3,-,N/A,,Scattered Clouds,330,2012-03-08 07:16:00
1:52 AM,28.4,21.2,74,30.18,10.0,NW,15.0,-,N/A,,Clear,320,2012-03-08 07:52:00
2:52 AM,27.0,21.9,81,30.20,10.0,NW,12.7,-,N/A,,Clear,320,2012-03-08 08:52:00
3:52 AM,26.1,21.0,81,30.22,10.0,WNW,9.2,-,N/A,,Clear,300,2012-03-08 09:52:00
4:52 AM,25.0,19.9,81,30.28,10.0,WNW,8.1,-,N/A,,Clear,300,2012-03-08 10:52:00
5:52 AM,23.0,19.0,85,30.31,10.0,West,3.5,-,N/A,,Clear,270,2012-03-08 11:52:00
6:52 AM,23.0,19.0,85,30.32,10.0,NW,4.6,-,N/A,,Clear,310,2012-03-08 12:52:00
7:52 AM,28.0,21.0,75,30.33,10.0,West,6.9,-,N/A,,Clear,280,2012-03-08 13:52:00
8:52 AM,34.0,23.0,64,30.36,10.0,NW,10.4,-,N/A,,Clear,310,2012-03-08 14:52:00
9:52 AM,37.9,21.9,53,30.38,10.0,NW,16.1,-,N/A,,Clear,320,2012-03-08 15:52:00
10:52 AM,41.0,21.0,45,30.38,10.0,NW,13.8,-,N/A,,Clear,310,2012-03-08 16:52:00
11:52 AM,44.1,19.9,38,30.38,10.0,NNW,16.1,26.5,N/A,,Clear,330,2012-03-08 17:52:00
12:52 PM,46.0,19.0,34,30.36,10.0,NW,16.1,-,N/A,,Clear,320,2012-03-08 18:52:00
1:52 PM,46.9,19.0,33,30.34,10.0,WNW,11.5,21.9,N/A,,Clear,300,2012-03-08 19:52:00
2:52 PM,48.9,16.0,27,30.32,10.0,NW,17.3,21.9,N/A,,Clear,320,2012-03-08 20:52:00
3:52 PM,50.0,16.0,26,30.32,10.0,WNW,11.5,21.9,N/A,,Clear,290,2012-03-08 21:52:00
4:52 PM,50.0,18.0,28,30.34,10.0,WNW,15.0,-,N/A,,Clear,300,2012-03-08 22:52:00
5:52 PM,48.0,19.9,33,30.35,10.0,WNW,9.2,-,N/A,,Clear,290,2012-03-08 23:52:00
6:52 PM,43.0,19.9,40,30.37,10.0,WSW,5.8,-,N/A,,Clear,250,2012-03-09 00:52:00
7:52 PM,37.0,19.0,48,30.37,10.0,West,8.1,-,N/A,,Clear,260,2012-03-09 01:52:00
8:52 PM,34.0,19.9,56,30.39,10.0,West,5.8,-,N/A,,Clear,260,2012-03-09 02:52:00
9:52 PM,33.1,19.9,59,30.42,10.0,NNW,8.1,-,N/A,,Clear,340,2012-03-09 03:52:00
10:52 PM,33.1,21.0,61,30.44,10.0,North,8.1,-,N/A,,Clear,350,2012-03-09 04:52:00
11:52 PM,35.1,26.1,70,30.47,10.0,NNE,9.2,-,N/A,,Clear,30,2012-03-09 05:52:00